Impacts TAF Board INFO
FOR SITUATIONAL AWARENESS. NOT TO BE USED FOR FLIGHT PLANNING PURPOSES.
IDs:

KLAX - Los Angeles Intl, CA, US

Issued at 1737 UTC 22 Feb 2018
Updated at 2036 UTC 22 Feb 2018
Potential Impact None Slight Moderate High
Time1953Z 22/21Z 22/22Z 22/23Z 23/00Z 23/01Z 23/02Z 23/03Z 23/04Z 23/05Z 23/06Z 23/07Z 23/08Z 23/09Z>>
Type OBS PRVL PRVL PRVL PRVL PRVL PRVL PRVL PRVL PRVL PRVL PRVL PRVL PRVL
VIS 10 >6 >6 >6 >6 >6 >6 >6 >6 >6 >6 >6 >6 >6
CIG -- -- -- -- -- -- -- -- -- -- -- -- -- --
Cover SCT SCT SCT SCT SCT SCT SCT SCT SCT SCT SCT SCT SCT SCT
FltCat VFR VFR VFR VFR VFR VFR VFR VFR VFR VFR VFR VFR VFR VFR
WX -- -- -- -- -- -- -- VCSH VCSH VCSH VCSH VCSH VCSH VCSH
WDir 260 260 260 260 260 260 260 270 270 270 270 290 290 290
WSpd 8 18 18 18 18 18 18 16 16 16 16 15 15 15
WGst -- 26 26 26 26 26 26 24 24 24 24 -- -- --

Raw TAF
KLAX 221737Z 2218/2324 10007KT P6SM SCT025 SCT035
  FM222100 26018G26KT P6SM SCT040
  FM230300 27016G24KT P6SM VCSH SCT050
  FM230700 29015KT P6SM VCSH SCT050
  FM231200 31014KT P6SM SKC
  FM232100 27018G26KT P6SM SKC


Raw METAR
KLAX 221953Z 26008KT 10SM SCT030 SCT040 15/04 A3023 RMK AO2 SLP236 T01500039 $
KLAX 221853Z 27008KT 10SM FEW027 SCT037 13/04 A3025 RMK AO2 SLP241 T01330039 $
KLAX 221753Z 12005KT 10SM FEW025 SCT037 13/04 A3025 RMK AO2 SLP241 T01330044 10133 20061 51015 $

METAR Board
Radar Display
Forecast Discussion

FOR SITUATIONAL AWARENESS. NOT TO BE USED FOR FLIGHT PLANNING PURPOSES.